sensor_id;sensor_type;location;lat;lon;timestamp;pressure;altitude;pressure_sealevel;temperature;humidity
250;BME280;109;19.806;-70.704;2022-10-17T00:02:04;101125.66;;;27.34;60.91
250;BME280;109;19.806;-70.704;2022-10-17T00:04:30;101130.38;;;27.31;61.23
250;BME280;109;19.806;-70.704;2022-10-17T00:06:57;101121.34;;;27.32;61.20
250;BME280;109;19.806;-70.704;2022-10-17T00:09:23;101119.44;;;27.34;60.59
250;BME280;109;19.806;-70.704;2022-10-17T00:11:50;101121.34;;;27.32;61.02
250;BME280;109;19.806;-70.704;2022-10-17T00:14:17;101122.13;;;27.34;60.77
250;BME280;109;19.806;-70.704;2022-10-17T00:20:45;101125.97;;;27.30;60.64
250;BME280;109;19.806;-70.704;2022-10-17T00:23:25;101127.00;;;27.27;60.67
250;BME280;109;19.806;-70.704;2022-10-17T00:26:05;101131.44;;;27.28;61.17
250;BME280;109;19.806;-70.704;2022-10-17T00:28:49;101131.03;;;27.34;60.91
250;BME280;109;19.806;-70.704;2022-10-17T00:31:29;101136.97;;;27.25;61.25
250;BME280;109;19.806;-70.704;2022-10-17T00:33:56;101140.16;;;27.32;61.32
250;BME280;109;19.806;-70.704;2022-10-17T00:36:35;101137.59;;;27.30;61.04
250;BME280;109;19.806;-70.704;2022-10-17T00:39:03;101145.53;;;27.32;61.24
250;BME280;109;19.806;-70.704;2022-10-17T00:41:43;101147.56;;;27.28;61.01
250;BME280;109;19.806;-70.704;2022-10-17T00:47:10;101147.47;;;27.30;61.17
250;BME280;109;19.806;-70.704;2022-10-17T00:49:46;101150.50;;;27.24;61.21
250;BME280;109;19.806;-70.704;2022-10-17T00:52:28;101144.56;;;27.33;61.33
250;BME280;109;19.806;-70.704;2022-10-17T00:55:07;101147.47;;;27.30;61.40
250;BME280;109;19.806;-70.704;2022-10-17T00:57:50;101152.72;;;27.31;61.47
250;BME280;109;19.806;-70.704;2022-10-17T01:00:19;101156.03;;;27.36;61.02
250;BME280;109;19.806;-70.704;2022-10-17T01:02:58;101158.44;;;27.41;61.76
250;BME280;109;19.806;-70.704;2022-10-17T01:05:26;101171.19;;;27.37;61.22
250;BME280;109;19.806;-70.704;2022-10-17T01:08:08;101174.34;;;27.30;61.30
250;BME280;109;19.806;-70.704;2022-10-17T01:13:43;101169.53;;;27.35;61.18
250;BME280;109;19.806;-70.704;2022-10-17T01:17:04;101177.78;;;27.32;61.52
250;BME280;109;19.806;-70.704;2022-10-17T01:20:25;101164.34;;;27.32;61.24
250;BME280;109;19.806;-70.704;2022-10-17T01:23:14;101170.94;;;27.42;61.23
250;BME280;109;19.806;-70.704;2022-10-17T01:26:18;101175.53;;;27.40;61.45
250;BME280;109;19.806;-70.704;2022-10-17T01:35:45;101186.22;;;27.26;61.43
250;BME280;109;19.806;-70.704;2022-10-17T01:38:35;101188.53;;;27.32;61.33
250;BME280;109;19.806;-70.704;2022-10-17T01:41:41;101193.72;;;27.35;61.62
250;BME280;109;19.806;-70.704;2022-10-17T01:44:25;101192.78;;;27.36;61.54
250;BME280;109;19.806;-70.704;2022-10-17T01:47:13;101194.44;;;27.23;61.49
250;BME280;109;19.806;-70.704;2022-10-17T01:49:50;101191.50;;;27.27;61.65
250;BME280;109;19.806;-70.704;2022-10-17T01:52:40;101198.25;;;27.34;61.13
250;BME280;109;19.806;-70.704;2022-10-17T01:55:20;101185.19;;;27.28;61.50
250;BME280;109;19.806;-70.704;2022-10-17T01:58:27;101183.53;;;27.26;61.13
250;BME280;109;19.806;-70.704;2022-10-17T02:01:02;101171.03;;;27.25;60.92
250;BME280;109;19.806;-70.704;2022-10-17T02:03:45;101178.84;;;27.29;61.17
250;BME280;109;19.806;-70.704;2022-10-17T02:06:37;101163.47;;;27.31;60.95
250;BME280;109;19.806;-70.704;2022-10-17T02:09:20;101167.50;;;27.24;60.65
250;BME280;109;19.806;-70.704;2022-10-17T02:24:50;101177.03;;;26.98;61.44
250;BME280;109;19.806;-70.704;2022-10-17T02:30:30;101182.50;;;26.97;61.32
250;BME280;109;19.806;-70.704;2022-10-17T02:33:22;101185.19;;;26.97;61.42
250;BME280;109;19.806;-70.704;2022-10-17T02:36:03;101190.63;;;26.95;61.86
250;BME280;109;19.806;-70.704;2022-10-17T02:38:45;101194.34;;;26.93;61.62
250;BME280;109;19.806;-70.704;2022-10-17T02:41:15;101194.03;;;26.99;61.52
250;BME280;109;19.806;-70.704;2022-10-17T02:43:56;101188.03;;;26.94;61.84
250;BME280;109;19.806;-70.704;2022-10-17T02:46:37;101191.66;;;26.93;61.43
250;BME280;109;19.806;-70.704;2022-10-17T02:49:35;101190.72;;;26.94;61.84
250;BME280;109;19.806;-70.704;2022-10-17T02:52:28;101188.88;;;26.78;62.09
250;BME280;109;19.806;-70.704;2022-10-17T02:55:19;101194.06;;;26.81;62.71
250;BME280;109;19.806;-70.704;2022-10-17T02:58:06;101199.00;;;26.73;62.38
250;BME280;109;19.806;-70.704;2022-10-17T03:00:42;101197.91;;;26.77;62.75
250;BME280;109;19.806;-70.704;2022-10-17T03:03:31;101186.53;;;26.72;62.30
250;BME280;109;19.806;-70.704;2022-10-17T03:06:04;101176.56;;;26.74;62.43
250;BME280;109;19.806;-70.704;2022-10-17T03:08:45;101171.53;;;26.68;62.36
250;BME280;109;19.806;-70.704;2022-10-17T03:11:11;101160.88;;;26.67;62.62
250;BME280;109;19.806;-70.704;2022-10-17T03:13:52;101164.00;;;26.75;62.15
250;BME280;109;19.806;-70.704;2022-10-17T03:16:32;101169.63;;;26.70;61.90
250;BME280;109;19.806;-70.704;2022-10-17T03:18:59;101174.91;;;26.72;62.38
250;BME280;109;19.806;-70.704;2022-10-17T03:21:38;101174.84;;;26.73;62.27
250;BME280;109;19.806;-70.704;2022-10-17T03:24:06;101168.16;;;26.80;62.15
250;BME280;109;19.806;-70.704;2022-10-17T03:26:52;101174.66;;;26.76;62.45
250;BME280;109;19.806;-70.704;2022-10-17T03:29:26;101171.78;;;26.79;62.37
250;BME280;109;19.806;-70.704;2022-10-17T03:32:08;101185.50;;;26.75;62.46
250;BME280;109;19.806;-70.704;2022-10-17T03:34:36;101172.16;;;26.73;61.92
250;BME280;109;19.806;-70.704;2022-10-17T03:37:16;101176.41;;;26.77;62.14
250;BME280;109;19.806;-70.704;2022-10-17T03:39:44;101172.66;;;26.80;62.23
250;BME280;109;19.806;-70.704;2022-10-17T03:42:24;101168.16;;;26.80;61.83
250;BME280;109;19.806;-70.704;2022-10-17T03:44:50;101171.78;;;26.79;62.07
250;BME280;109;19.806;-70.704;2022-10-17T03:47:31;101161.72;;;26.67;61.86
250;BME280;109;19.806;-70.704;2022-10-17T03:49:58;101155.63;;;26.65;62.60
250;BME280;109;19.806;-70.704;2022-10-17T03:52:47;101160.19;;;26.63;62.63
250;BME280;109;19.806;-70.704;2022-10-17T03:55:21;101157.59;;;26.62;62.17
250;BME280;109;19.806;-70.704;2022-10-17T03:58:01;101153.09;;;26.62;62.63
250;BME280;109;19.806;-70.704;2022-10-17T04:00:28;101163.38;;;26.54;62.58
250;BME280;109;19.806;-70.704;2022-10-17T04:03:09;101165.38;;;26.50;62.56
250;BME280;109;19.806;-70.704;2022-10-17T04:05:35;101160.00;;;26.50;62.69
250;BME280;109;19.806;-70.704;2022-10-17T04:08:16;101169.00;;;26.49;62.95
250;BME280;109;19.806;-70.704;2022-10-17T04:11:17;101158.59;;;26.43;62.55
250;BME280;109;19.806;-70.704;2022-10-17T04:13:59;101168.94;;;26.51;62.62
250;BME280;109;19.806;-70.704;2022-10-17T04:16:40;101170.91;;;26.47;62.64
250;BME280;109;19.806;-70.704;2022-10-17T04:19:13;101169.00;;;26.49;62.82
250;BME280;109;19.806;-70.704;2022-10-17T04:21:54;101176.03;;;26.52;63.39
250;BME280;109;19.806;-70.704;2022-10-17T04:24:21;101172.91;;;26.60;63.29
250;BME280;109;19.806;-70.704;2022-10-17T04:27:14;101162.19;;;26.60;63.38
250;BME280;109;19.806;-70.704;2022-10-17T04:29:47;101169.09;;;26.48;63.15
250;BME280;109;19.806;-70.704;2022-10-17T04:32:30;101172.22;;;26.56;63.61
250;BME280;109;19.806;-70.704;2022-10-17T04:35:01;101161.56;;;26.55;63.26
250;BME280;109;19.806;-70.704;2022-10-17T04:37:46;101148.56;;;26.47;63.42
250;BME280;109;19.806;-70.704;2022-10-17T04:40:20;101144.06;;;26.47;64.11
250;BME280;109;19.806;-70.704;2022-10-17T04:43:00;101145.09;;;26.45;63.93
250;BME280;109;19.806;-70.704;2022-10-17T04:45:33;101144.31;;;26.43;63.69
250;BME280;109;19.806;-70.704;2022-10-17T04:48:13;101148.88;;;26.41;64.09
250;BME280;109;19.806;-70.704;2022-10-17T04:50:58;101141.94;;;26.37;64.05
250;BME280;109;19.806;-70.704;2022-10-17T04:53:57;101138.06;;;26.42;63.79
250;BME280;109;19.806;-70.704;2022-10-17T04:56:40;101138.94;;;26.43;63.79
250;BME280;109;19.806;-70.704;2022-10-17T04:59:14;101130.72;;;26.46;64.04
250;BME280;109;19.806;-70.704;2022-10-17T05:02:04;101125.13;;;26.50;63.87
250;BME280;109;19.806;-70.704;2022-10-17T05:04:38;101121.63;;;26.48;63.65
250;BME280;109;19.806;-70.704;2022-10-17T05:07:19;101122.75;;;26.44;63.69
250;BME280;109;19.806;-70.704;2022-10-17T05:10:01;101118.97;;;26.48;63.22
250;BME280;109;19.806;-70.704;2022-10-17T05:12:46;101133.31;;;26.47;63.85
250;BME280;109;19.806;-70.704;2022-10-17T05:15:22;101132.53;;;26.45;63.07
250;BME280;109;19.806;-70.704;2022-10-17T05:18:03;101126.31;;;26.45;63.10
250;BME280;109;19.806;-70.704;2022-10-17T05:20:31;101122.66;;;26.46;63.33
250;BME280;109;19.806;-70.704;2022-10-17T05:23:17;101124.50;;;26.45;63.67
250;BME280;109;19.806;-70.704;2022-10-17T05:25:58;101125.13;;;26.50;63.69
250;BME280;109;19.806;-70.704;2022-10-17T05:28:39;101113.59;;;26.48;63.62
250;BME280;109;19.806;-70.704;2022-10-17T05:31:08;101113.84;;;26.44;62.87
250;BME280;109;19.806;-70.704;2022-10-17T05:33:48;101105.25;;;26.37;63.37
250;BME280;109;19.806;-70.704;2022-10-17T05:36:29;101105.72;;;26.28;63.71
250;BME280;109;19.806;-70.704;2022-10-17T05:38:56;101100.34;;;26.28;63.26
250;BME280;109;19.806;-70.704;2022-10-17T05:41:36;101099.28;;;26.15;63.99
250;BME280;109;19.806;-70.704;2022-10-17T05:44:04;101097.31;;;26.19;63.91
250;BME280;109;19.806;-70.704;2022-10-17T05:46:50;101095.84;;;26.29;63.72
250;BME280;109;19.806;-70.704;2022-10-17T05:49:24;101095.09;;;26.27;63.39
250;BME280;109;19.806;-70.704;2022-10-17T05:52:11;101094.97;;;26.28;63.47
250;BME280;109;19.806;-70.704;2022-10-17T05:55:04;101098.03;;;26.22;63.59
250;BME280;109;19.806;-70.704;2022-10-17T05:57:45;101086.00;;;26.13;63.24
250;BME280;109;19.806;-70.704;2022-10-17T06:00:15;101078.25;;;26.07;63.74
250;BME280;109;19.806;-70.704;2022-10-17T06:02:57;101084.72;;;26.03;63.82
250;BME280;109;19.806;-70.704;2022-10-17T06:05:24;101078.69;;;26.00;63.43
250;BME280;109;19.806;-70.704;2022-10-17T06:08:04;101080.50;;;25.99;63.97
250;BME280;109;19.806;-70.704;2022-10-17T06:10:34;101084.38;;;25.94;63.61
250;BME280;109;19.806;-70.704;2022-10-17T06:13:15;101074.75;;;25.90;63.52
250;BME280;109;19.806;-70.704;2022-10-17T06:15:42;101075.53;;;25.92;63.89
250;BME280;109;19.806;-70.704;2022-10-17T06:18:23;101069.56;;;25.87;64.23
250;BME280;109;19.806;-70.704;2022-10-17T06:20:49;101065.28;;;25.83;63.76
250;BME280;109;19.806;-70.704;2022-10-17T06:23:36;101066.28;;;25.80;63.79
250;BME280;109;19.806;-70.704;2022-10-17T06:26:30;101063.16;;;25.72;64.15
250;BME280;109;19.806;-70.704;2022-10-17T06:29:12;101060.63;;;25.69;63.87
250;BME280;109;19.806;-70.704;2022-10-17T06:31:52;101067.44;;;25.59;64.53
250;BME280;109;19.806;-70.704;2022-10-17T06:34:19;101051.97;;;25.64;63.85
250;BME280;109;19.806;-70.704;2022-10-17T06:37:15;101055.78;;;25.60;63.80
250;BME280;109;19.806;-70.704;2022-10-17T06:39:49;101052.91;;;25.63;63.84
250;BME280;109;19.806;-70.704;2022-10-17T06:42:30;101044.25;;;25.58;64.25
250;BME280;109;19.806;-70.704;2022-10-17T06:45:15;101042.38;;;25.60;64.05
250;BME280;109;19.806;-70.704;2022-10-17T06:48:16;101053.31;;;25.55;63.83
250;BME280;109;19.806;-70.704;2022-10-17T06:51:12;101049.13;;;25.50;64.47
250;BME280;109;19.806;-70.704;2022-10-17T06:53:57;101044.50;;;25.53;64.22
250;BME280;109;19.806;-70.704;2022-10-17T06:56:48;101034.63;;;25.54;64.03
250;BME280;109;19.806;-70.704;2022-10-17T06:59:40;101028.41;;;25.53;63.98
250;BME280;109;19.806;-70.704;2022-10-17T07:02:25;101026.59;;;25.54;64.17
250;BME280;109;19.806;-70.704;2022-10-17T07:05:00;101034.88;;;25.49;64.39
250;BME280;109;19.806;-70.704;2022-10-17T07:07:40;101024.88;;;25.53;64.16
250;BME280;109;19.806;-70.704;2022-10-17T07:10:06;101023.31;;;25.49;64.38
250;BME280;109;19.806;-70.704;2022-10-17T07:12:48;101011.81;;;25.47;64.25
250;BME280;109;19.806;-70.704;2022-10-17T07:15:14;101015.16;;;25.50;64.27
250;BME280;109;19.806;-70.704;2022-10-17T07:17:54;101014.31;;;25.50;64.25
250;BME280;109;19.806;-70.704;2022-10-17T07:20:22;101013.34;;;25.51;64.43
250;BME280;109;19.806;-70.704;2022-10-17T07:23:09;101007.91;;;25.52;64.33
250;BME280;109;19.806;-70.704;2022-10-17T07:25:49;101007.25;;;25.49;64.10
250;BME280;109;19.806;-70.704;2022-10-17T07:28:30;101017.84;;;25.50;64.36
250;BME280;109;19.806;-70.704;2022-10-17T07:31:13;101018.91;;;25.48;64.65
250;BME280;109;19.806;-70.704;2022-10-17T07:34:01;101018.97;;;25.46;64.45
250;BME280;109;19.806;-70.704;2022-10-17T07:36:42;101011.25;;;25.40;64.38
250;BME280;109;19.806;-70.704;2022-10-17T07:39:10;101013.94;;;25.40;64.46
250;BME280;109;19.806;-70.704;2022-10-17T07:41:50;101011.41;;;25.37;64.32
250;BME280;109;19.806;-70.704;2022-10-17T07:44:17;101016.75;;;25.37;64.13
250;BME280;109;19.806;-70.704;2022-10-17T07:46:58;101029.13;;;25.39;64.60
250;BME280;109;19.806;-70.704;2022-10-17T07:49:24;101026.38;;;25.41;64.44
250;BME280;109;19.806;-70.704;2022-10-17T07:52:03;101021.97;;;25.40;64.20
250;BME280;109;19.806;-70.704;2022-10-17T07:54:30;101007.53;;;25.42;64.35
250;BME280;109;19.806;-70.704;2022-10-17T07:57:09;101015.34;;;25.47;64.29
250;BME280;109;19.806;-70.704;2022-10-17T07:59:37;101013.44;;;25.49;63.96
250;BME280;109;19.806;-70.704;2022-10-17T08:02:24;101013.53;;;25.48;63.97
250;BME280;109;19.806;-70.704;2022-10-17T08:04:58;101017.97;;;25.49;64.18
250;BME280;109;19.806;-70.704;2022-10-17T08:07:37;101019.84;;;25.47;64.05
250;BME280;109;19.806;-70.704;2022-10-17T08:10:05;101021.66;;;25.46;64.29
250;BME280;109;19.806;-70.704;2022-10-17T08:12:44;101020.88;;;25.44;63.97
250;BME280;109;19.806;-70.704;2022-10-17T08:15:11;101027.25;;;25.41;64.02
250;BME280;109;19.806;-70.704;2022-10-17T08:17:52;101028.19;;;25.40;64.17
250;BME280;109;19.806;-70.704;2022-10-17T08:20:20;101023.16;;;25.34;64.11
250;BME280;109;19.806;-70.704;2022-10-17T08:23:06;101017.03;;;25.32;64.74
250;BME280;109;19.806;-70.704;2022-10-17T08:25:53;101021.44;;;25.33;64.18
250;BME280;109;19.806;-70.704;2022-10-17T08:28:35;101018.03;;;25.30;64.15
250;BME280;109;19.806;-70.704;2022-10-17T08:31:18;101025.31;;;25.26;64.61
250;BME280;109;19.806;-70.704;2022-10-17T08:33:45;101022.78;;;25.23;64.27
250;BME280;109;19.806;-70.704;2022-10-17T08:36:27;101031.47;;;25.28;64.12
250;BME280;109;19.806;-70.704;2022-10-17T08:38:54;101025.47;;;25.23;64.48
250;BME280;109;19.806;-70.704;2022-10-17T08:41:42;101027.13;;;25.26;64.39
250;BME280;109;19.806;-70.704;2022-10-17T08:47:03;101044.06;;;25.26;64.58
250;BME280;109;19.806;-70.704;2022-10-17T08:52:45;101046.75;;;25.26;64.54
250;BME280;109;19.806;-70.704;2022-10-17T08:55:43;101041.31;;;25.28;64.30
250;BME280;109;19.806;-70.704;2022-10-17T08:58:29;101046.66;;;25.29;64.35
250;BME280;109;19.806;-70.704;2022-10-17T09:01:30;101041.28;;;25.29;64.27
250;BME280;109;19.806;-70.704;2022-10-17T09:07:48;101040.00;;;25.36;64.23
250;BME280;109;19.806;-70.704;2022-10-17T09:20:13;101030.84;;;25.23;64.07
250;BME280;109;19.806;-70.704;2022-10-17T09:23:09;101030.06;;;25.21;64.15
250;BME280;109;19.806;-70.704;2022-10-17T09:25:53;101025.88;;;25.16;64.20
250;BME280;109;19.806;-70.704;2022-10-17T09:28:37;101021.25;;;25.19;64.09
250;BME280;109;19.806;-70.704;2022-10-17T09:31:37;101016.03;;;25.16;64.42
250;BME280;109;19.806;-70.704;2022-10-17T09:34:13;101012.56;;;25.14;64.46
250;BME280;109;19.806;-70.704;2022-10-17T09:36:54;101020.75;;;25.11;64.23
250;BME280;109;19.806;-70.704;2022-10-17T09:39:23;101008.16;;;25.13;64.42
250;BME280;109;19.806;-70.704;2022-10-17T09:42:05;101009.81;;;25.16;64.10
250;BME280;109;19.806;-70.704;2022-10-17T09:44:49;101015.56;;;25.08;64.22
250;BME280;109;19.806;-70.704;2022-10-17T09:47:38;101023.19;;;24.98;64.56
250;BME280;109;19.806;-70.704;2022-10-17T09:50:33;101028.31;;;25.03;64.84
250;BME280;109;19.806;-70.704;2022-10-17T09:53:18;101040.03;;;25.00;64.47
250;BME280;109;19.806;-70.704;2022-10-17T09:55:54;101051.63;;;25.01;64.98
250;BME280;109;19.806;-70.704;2022-10-17T09:58:47;101053.69;;;24.96;64.79
250;BME280;109;19.806;-70.704;2022-10-17T10:01:29;101056.38;;;24.96;64.88
250;BME280;109;19.806;-70.704;2022-10-17T10:04:16;101060.28;;;24.89;65.21
250;BME280;109;19.806;-70.704;2022-10-17T10:07:10;101058.41;;;24.91;64.63
250;BME280;109;19.806;-70.704;2022-10-17T10:09:46;101063.34;;;24.81;64.75
250;BME280;109;19.806;-70.704;2022-10-17T10:12:31;101058.22;;;24.77;64.89
250;BME280;109;19.806;-70.704;2022-10-17T10:15:34;101064.44;;;24.77;64.47
250;BME280;109;19.806;-70.704;2022-10-17T10:21:12;101065.69;;;24.87;64.36
250;BME280;109;19.806;-70.704;2022-10-17T10:24:13;101075.53;;;24.87;64.25
250;BME280;109;19.806;-70.704;2022-10-17T10:27:50;101079.34;;;24.83;64.50
250;BME280;109;19.806;-70.704;2022-10-17T10:30:38;101077.94;;;24.74;64.46
250;BME280;109;19.806;-70.704;2022-10-17T10:33:19;101084.44;;;24.68;64.81
250;BME280;109;19.806;-70.704;2022-10-17T10:35:58;101089.94;;;24.65;64.57
250;BME280;109;19.806;-70.704;2022-10-17T10:38:28;101091.03;;;24.61;64.53
250;BME280;109;19.806;-70.704;2022-10-17T10:41:00;101097.09;;;24.65;64.51
250;BME280;109;19.806;-70.704;2022-10-17T10:46:02;101108.19;;;24.76;64.69
250;BME280;109;19.806;-70.704;2022-10-17T10:48:35;101107.13;;;24.80;64.43
250;BME280;109;19.806;-70.704;2022-10-17T10:54:11;101115.88;;;24.84;63.71
250;BME280;109;19.806;-70.704;2022-10-17T10:56:42;101121.38;;;24.81;64.18
250;BME280;109;19.806;-70.704;2022-10-17T11:04:43;101135.69;;;24.80;64.36
250;BME280;109;19.806;-70.704;2022-10-17T11:07:15;101130.97;;;24.85;64.21
250;BME280;109;19.806;-70.704;2022-10-17T11:09:49;101128.56;;;24.97;63.99
250;BME280;109;19.806;-70.704;2022-10-17T11:18:31;101124.44;;;25.26;63.27
250;BME280;109;19.806;-70.704;2022-10-17T11:21:05;101127.66;;;25.34;62.90
250;BME280;109;19.806;-70.704;2022-10-17T11:23:47;101120.25;;;25.39;62.90
250;BME280;109;19.806;-70.704;2022-10-17T11:26:24;101124.72;;;25.39;62.82
250;BME280;109;19.806;-70.704;2022-10-17T11:28:55;101121.03;;;25.41;62.92
250;BME280;109;19.806;-70.704;2022-10-17T11:31:24;101124.09;;;25.51;62.85
250;BME280;109;19.806;-70.704;2022-10-17T11:34:00;101120.19;;;25.58;62.53
250;BME280;109;19.806;-70.704;2022-10-17T11:36:35;101122.94;;;25.57;62.92
250;BME280;109;19.806;-70.704;2022-10-17T11:41:52;101143.19;;;25.62;62.88
250;BME280;109;19.806;-70.704;2022-10-17T11:44:30;101145.34;;;25.73;62.87
250;BME280;109;19.806;-70.704;2022-10-17T11:49:44;101151.75;;;25.88;62.83
250;BME280;109;19.806;-70.704;2022-10-17T11:55:13;101154.31;;;26.06;62.07
250;BME280;109;19.806;-70.704;2022-10-17T11:58:05;101153.88;;;26.14;61.52
250;BME280;109;19.806;-70.704;2022-10-17T12:08:53;101168.25;;;26.79;60.40
250;BME280;109;19.806;-70.704;2022-10-17T12:13:51;101167.78;;;27.04;60.07
250;BME280;109;19.806;-70.704;2022-10-17T12:19:35;101167.00;;;27.17;59.12
250;BME280;109;19.806;-70.704;2022-10-17T12:21:57;101180.13;;;27.22;58.29
250;BME280;109;19.806;-70.704;2022-10-17T12:24:40;101186.38;;;27.38;58.60
250;BME280;109;19.806;-70.704;2022-10-17T12:30:25;101182.22;;;27.48;58.52
250;BME280;109;19.806;-70.704;2022-10-17T12:35:34;101175.38;;;27.73;58.44
250;BME280;109;19.806;-70.704;2022-10-17T12:38:02;101187.81;;;27.89;57.80
250;BME280;109;19.806;-70.704;2022-10-17T12:45:59;101174.28;;;27.91;56.77
250;BME280;109;19.806;-70.704;2022-10-17T12:51:15;101182.91;;;27.82;58.17
250;BME280;109;19.806;-70.704;2022-10-17T12:56:17;101185.97;;;28.06;56.81
250;BME280;109;19.806;-70.704;2022-10-17T12:58:45;101195.19;;;28.02;57.68
250;BME280;109;19.806;-70.704;2022-10-17T13:01:31;101195.38;;;28.13;57.30
250;BME280;109;19.806;-70.704;2022-10-17T13:03:59;101198.66;;;28.18;57.94
250;BME280;109;19.806;-70.704;2022-10-17T13:06:33;101203.06;;;28.05;58.35
250;BME280;109;19.806;-70.704;2022-10-17T13:09:30;101210.63;;;27.98;58.93
250;BME280;109;19.806;-70.704;2022-10-17T13:11:57;101206.56;;;27.91;58.53
250;BME280;109;19.806;-70.704;2022-10-17T13:14:24;101204.56;;;27.95;58.56
250;BME280;109;19.806;-70.704;2022-10-17T13:17:00;101196.34;;;28.12;58.06
250;BME280;109;19.806;-70.704;2022-10-17T13:19:41;101210.41;;;28.31;58.17
250;BME280;109;19.806;-70.704;2022-10-17T13:24:49;101207.44;;;28.21;56.98
250;BME280;109;19.806;-70.704;2022-10-17T13:27:31;101207.72;;;28.31;56.12
250;BME280;109;19.806;-70.704;2022-10-17T13:30:01;101202.03;;;28.36;55.41
250;BME280;109;19.806;-70.704;2022-10-17T13:32:37;101203.56;;;28.25;54.58
250;BME280;109;19.806;-70.704;2022-10-17T13:35:12;101200.41;;;28.33;54.41
250;BME280;109;19.806;-70.704;2022-10-17T13:37:40;101197.41;;;28.38;55.34
250;BME280;109;19.806;-70.704;2022-10-17T13:40:18;101200.78;;;28.41;55.89
250;BME280;109;19.806;-70.704;2022-10-17T13:42:46;101203.38;;;28.43;55.52
250;BME280;109;19.806;-70.704;2022-10-17T13:45:27;101195.44;;;28.70;55.59
250;BME280;109;19.806;-70.704;2022-10-17T13:47:54;101189.28;;;28.68;55.69
250;BME280;109;19.806;-70.704;2022-10-17T13:50:33;101195.44;;;28.70;55.25
250;BME280;109;19.806;-70.704;2022-10-17T13:53:27;101194.38;;;28.86;55.83
250;BME280;109;19.806;-70.704;2022-10-17T13:55:58;101196.78;;;28.63;55.70
250;BME280;109;19.806;-70.704;2022-10-17T13:58:28;101199.69;;;28.59;55.60
250;BME280;109;19.806;-70.704;2022-10-17T14:00:56;101199.28;;;28.66;55.75
250;BME280;109;19.806;-70.704;2022-10-17T14:03:22;101198.41;;;28.65;55.41
250;BME280;109;19.806;-70.704;2022-10-17T14:08:51;101196.69;;;28.64;56.55
250;BME280;109;19.806;-70.704;2022-10-17T14:11:34;101200.16;;;28.52;55.84
250;BME280;109;19.806;-70.704;2022-10-17T14:14:03;101201.38;;;28.75;56.49
250;BME280;109;19.806;-70.704;2022-10-17T14:16:37;101202.03;;;28.92;56.90
250;BME280;109;19.806;-70.704;2022-10-17T14:19:06;101198.38;;;28.93;57.32
250;BME280;109;19.806;-70.704;2022-10-17T14:21:40;101201.25;;;28.90;56.27
250;BME280;109;19.806;-70.704;2022-10-17T14:26:57;101206.66;;;28.76;56.57
250;BME280;109;19.806;-70.704;2022-10-17T14:29:30;101207.41;;;28.92;56.84
250;BME280;109;19.806;-70.704;2022-10-17T14:32:03;101215.50;;;28.92;56.62
250;BME280;109;19.806;-70.704;2022-10-17T14:34:38;101214.19;;;28.85;56.66
250;BME280;109;19.806;-70.704;2022-10-17T14:39:53;101204.63;;;29.08;56.79
250;BME280;109;19.806;-70.704;2022-10-17T14:42:22;101195.19;;;29.01;56.94
250;BME280;109;19.806;-70.704;2022-10-17T14:44:49;101207.69;;;29.16;57.00
250;BME280;109;19.806;-70.704;2022-10-17T14:47:20;101205.66;;;29.20;56.72
250;BME280;109;19.806;-70.704;2022-10-17T14:50:23;101206.00;;;29.28;56.74
250;BME280;109;19.806;-70.704;2022-10-17T14:55:28;101206.78;;;29.30;55.74
250;BME280;109;19.806;-70.704;2022-10-17T14:57:55;101203.34;;;29.41;55.59
250;BME280;109;19.806;-70.704;2022-10-17T15:00:23;101203.16;;;29.44;55.96
250;BME280;109;19.806;-70.704;2022-10-17T15:02:51;101203.06;;;29.45;55.83
250;BME280;109;19.806;-70.704;2022-10-17T15:05:18;101198.47;;;29.47;54.29
250;BME280;109;19.806;-70.704;2022-10-17T15:07:45;101189.41;;;29.48;53.99
250;BME280;109;19.806;-70.704;2022-10-17T15:10:30;101184.81;;;29.63;54.19
250;BME280;109;19.806;-70.704;2022-10-17T15:12:58;101187.75;;;29.73;55.23
250;BME280;109;19.806;-70.704;2022-10-17T15:15:29;101186.19;;;29.56;53.79
250;BME280;109;19.806;-70.704;2022-10-17T15:17:56;101175.28;;;29.57;53.69
250;BME280;109;19.806;-70.704;2022-10-17T15:20:25;101174.56;;;29.68;55.45
250;BME280;109;19.806;-70.704;2022-10-17T15:22:53;101180.63;;;29.84;54.59
250;BME280;109;19.806;-70.704;2022-10-17T15:25:21;101173.19;;;29.75;54.72
250;BME280;109;19.806;-70.704;2022-10-17T15:27:48;101169.59;;;29.62;54.68
250;BME280;109;19.806;-70.704;2022-10-17T15:30:34;101168.94;;;29.58;54.93
250;BME280;109;19.806;-70.704;2022-10-17T15:33:01;101166.63;;;29.52;55.16
250;BME280;109;19.806;-70.704;2022-10-17T15:35:28;101164.06;;;29.51;54.86
250;BME280;109;19.806;-70.704;2022-10-17T15:37:54;101166.56;;;29.66;54.55
250;BME280;109;19.806;-70.704;2022-10-17T15:40:24;101158.47;;;29.66;55.03
250;BME280;109;19.806;-70.704;2022-10-17T15:42:51;101159.91;;;29.72;55.49
250;BME280;109;19.806;-70.704;2022-10-17T15:45:19;101159.34;;;29.80;55.26
250;BME280;109;19.806;-70.704;2022-10-17T15:47:54;101159.03;;;29.72;54.98
250;BME280;109;19.806;-70.704;2022-10-17T15:50:21;101150.75;;;29.75;55.62
250;BME280;109;19.806;-70.704;2022-10-17T15:52:49;101152.53;;;29.61;56.16
250;BME280;109;19.806;-70.704;2022-10-17T15:55:18;101142.53;;;29.63;56.15
250;BME280;109;19.806;-70.704;2022-10-17T15:57:46;101140.03;;;29.60;56.13
250;BME280;109;19.806;-70.704;2022-10-17T16:00:21;101140.03;;;29.60;55.73
250;BME280;109;19.806;-70.704;2022-10-17T16:02:49;101130.31;;;29.58;56.38
250;BME280;109;19.806;-70.704;2022-10-17T16:05:18;101122.97;;;29.47;56.56
250;BME280;109;19.806;-70.704;2022-10-17T16:07:48;101114.25;;;29.69;56.76
250;BME280;109;19.806;-70.704;2022-10-17T16:10:15;101112.09;;;29.61;56.36
250;BME280;109;19.806;-70.704;2022-10-17T16:12:42;101119.63;;;29.56;56.18